sensor_id;sensor_type;location;lat;lon;timestamp;P1;durP1;ratioP1;P2;durP2;ratioP2
55310;SDS011;41173;52.634;-8.666;2024-03-08T16:44:34;2.33;;;1.30;;
55310;SDS011;41173;52.634;-8.666;2024-03-08T16:46:59;2.03;;;1.27;;
55310;SDS011;41173;52.634;-8.666;2024-03-08T16:49:25;1.87;;;1.57;;
55310;SDS011;41173;52.634;-8.666;2024-03-08T16:51:51;2.13;;;1.70;;
55310;SDS011;41173;52.634;-8.666;2024-03-08T16:54:16;3.17;;;1.90;;
55310;SDS011;41173;52.634;-8.666;2024-03-08T16:56:43;2.67;;;2.08;;
55310;SDS011;41173;52.634;-8.666;2024-03-08T16:59:10;3.78;;;1.98;;
55310;SDS011;41173;52.634;-8.666;2024-03-08T17:01:35;3.37;;;2.43;;
55310;SDS011;41173;52.634;-8.666;2024-03-08T17:04:03;6.15;;;3.33;;
55310;SDS011;41173;52.634;-8.666;2024-03-08T17:06:29;4.32;;;3.10;;
55310;SDS011;41173;52.634;-8.666;2024-03-08T17:08:56;3.72;;;2.88;;
55310;SDS011;41173;52.634;-8.666;2024-03-08T17:11:21;5.27;;;3.20;;
55310;SDS011;41173;52.634;-8.666;2024-03-08T17:13:47;5.33;;;2.90;;
55310;SDS011;41173;52.634;-8.666;2024-03-08T17:16:13;4.63;;;3.40;;
55310;SDS011;41173;52.634;-8.666;2024-03-08T17:18:40;5.55;;;3.50;;
55310;SDS011;41173;52.634;-8.666;2024-03-08T17:21:05;6.63;;;3.83;;
55310;SDS011;41173;52.634;-8.666;2024-03-08T17:23:38;4.90;;;3.00;;
55310;SDS011;41173;52.634;-8.666;2024-03-08T17:26:05;4.93;;;3.20;;
55310;SDS011;41173;52.634;-8.666;2024-03-08T17:28:32;5.30;;;3.28;;
55310;SDS011;41173;52.634;-8.666;2024-03-08T17:31:01;5.88;;;3.67;;
55310;SDS011;41173;52.634;-8.666;2024-03-08T17:33:27;4.33;;;3.37;;
55310;SDS011;41173;52.634;-8.666;2024-03-08T17:35:59;5.18;;;3.35;;
55310;SDS011;41173;52.634;-8.666;2024-03-08T17:38:25;4.97;;;2.77;;
55310;SDS011;41173;52.634;-8.666;2024-03-08T17:40:50;5.70;;;3.50;;
55310;SDS011;41173;52.634;-8.666;2024-03-08T17:43:16;5.67;;;3.03;;
55310;SDS011;41173;52.634;-8.666;2024-03-08T17:45:47;6.22;;;3.10;;
55310;SDS011;41173;52.634;-8.666;2024-03-08T17:48:13;4.47;;;3.10;;
55310;SDS011;41173;52.634;-8.666;2024-03-08T17:50:41;4.30;;;3.38;;
55310;SDS011;41173;52.634;-8.666;2024-03-08T17:53:08;4.72;;;3.20;;
55310;SDS011;41173;52.634;-8.666;2024-03-08T17:55:35;4.50;;;3.00;;
55310;SDS011;41173;52.634;-8.666;2024-03-08T17:58:02;4.03;;;2.80;;
55310;SDS011;41173;52.634;-8.666;2024-03-08T18:00:28;4.10;;;3.03;;
55310;SDS011;41173;52.634;-8.666;2024-03-08T18:03:04;4.43;;;3.28;;
55310;SDS011;41173;52.634;-8.666;2024-03-08T18:05:33;4.07;;;2.83;;
55310;SDS011;41173;52.634;-8.666;2024-03-08T18:08:01;3.55;;;2.90;;
55310;SDS011;41173;52.634;-8.666;2024-03-08T18:10:28;4.18;;;3.03;;
55310;SDS011;41173;52.634;-8.666;2024-03-08T18:12:55;5.05;;;3.22;;
55310;SDS011;41173;52.634;-8.666;2024-03-08T18:15:25;5.10;;;3.80;;
55310;SDS011;41173;52.634;-8.666;2024-03-08T18:17:55;5.57;;;4.13;;
55310;SDS011;41173;52.634;-8.666;2024-03-08T18:20:28;5.10;;;3.25;;
55310;SDS011;41173;52.634;-8.666;2024-03-08T18:22:56;5.45;;;3.58;;
55310;SDS011;41173;52.634;-8.666;2024-03-08T18:25:23;4.45;;;3.35;;
55310;SDS011;41173;52.634;-8.666;2024-03-08T18:27:52;4.82;;;3.20;;
55310;SDS011;41173;52.634;-8.666;2024-03-08T18:30:18;3.50;;;2.90;;
55310;SDS011;41173;52.634;-8.666;2024-03-08T18:32:44;4.57;;;3.17;;
55310;SDS011;41173;52.634;-8.666;2024-03-08T18:35:14;5.00;;;3.30;;
55310;SDS011;41173;52.634;-8.666;2024-03-08T18:37:43;4.72;;;3.53;;
55310;SDS011;41173;52.634;-8.666;2024-03-08T18:40:12;5.80;;;3.75;;
55310;SDS011;41173;52.634;-8.666;2024-03-08T18:42:39;6.68;;;3.47;;
55310;SDS011;41173;52.634;-8.666;2024-03-08T18:45:08;3.95;;;2.92;;
55310;SDS011;41173;52.634;-8.666;2024-03-08T18:47:45;4.67;;;3.10;;
55310;SDS011;41173;52.634;-8.666;2024-03-08T18:50:15;5.50;;;3.47;;
55310;SDS011;41173;52.634;-8.666;2024-03-08T18:52:45;6.00;;;3.38;;
55310;SDS011;41173;52.634;-8.666;2024-03-08T18:55:12;3.78;;;2.70;;
55310;SDS011;41173;52.634;-8.666;2024-03-08T18:57:40;4.25;;;2.83;;
55310;SDS011;41173;52.634;-8.666;2024-03-08T19:00:13;4.75;;;3.03;;
55310;SDS011;41173;52.634;-8.666;2024-03-08T19:02:49;5.63;;;3.10;;
55310;SDS011;41173;52.634;-8.666;2024-03-08T19:05:38;3.78;;;3.00;;
55310;SDS011;41173;52.634;-8.666;2024-03-08T19:08:11;4.10;;;2.97;;
55310;SDS011;41173;52.634;-8.666;2024-03-08T19:10:42;5.88;;;3.10;;
55310;SDS011;41173;52.634;-8.666;2024-03-08T19:13:07;3.90;;;2.90;;
55310;SDS011;41173;52.634;-8.666;2024-03-08T19:15:39;4.78;;;3.20;;
55310;SDS011;41173;52.634;-8.666;2024-03-08T19:18:05;4.68;;;3.22;;
55310;SDS011;41173;52.634;-8.666;2024-03-08T19:20:35;4.28;;;3.22;;
55310;SDS011;41173;52.634;-8.666;2024-03-08T19:23:02;4.53;;;2.90;;
55310;SDS011;41173;52.634;-8.666;2024-03-08T19:25:31;4.20;;;2.53;;
55310;SDS011;41173;52.634;-8.666;2024-03-08T19:28:04;4.20;;;2.65;;
55310;SDS011;41173;52.634;-8.666;2024-03-08T19:30:31;4.68;;;2.85;;
55310;SDS011;41173;52.634;-8.666;2024-03-08T19:32:57;3.80;;;2.80;;
55310;SDS011;41173;52.634;-8.666;2024-03-08T19:35:24;3.90;;;2.83;;
55310;SDS011;41173;52.634;-8.666;2024-03-08T19:37:52;4.72;;;3.30;;
55310;SDS011;41173;52.634;-8.666;2024-03-08T19:40:20;5.43;;;3.53;;
55310;SDS011;41173;52.634;-8.666;2024-03-08T19:42:52;4.90;;;3.42;;
55310;SDS011;41173;52.634;-8.666;2024-03-08T19:45:20;4.93;;;3.10;;
55310;SDS011;41173;52.634;-8.666;2024-03-08T19:47:45;4.45;;;2.90;;
55310;SDS011;41173;52.634;-8.666;2024-03-08T19:50:12;5.30;;;3.10;;
55310;SDS011;41173;52.634;-8.666;2024-03-08T19:52:45;4.75;;;2.83;;
55310;SDS011;41173;52.634;-8.666;2024-03-08T19:55:15;5.15;;;3.08;;
55310;SDS011;41173;52.634;-8.666;2024-03-08T19:57:43;8.52;;;5.18;;
55310;SDS011;41173;52.634;-8.666;2024-03-08T20:00:20;4.25;;;3.33;;
55310;SDS011;41173;52.634;-8.666;2024-03-08T20:02:50;4.13;;;3.20;;
55310;SDS011;41173;52.634;-8.666;2024-03-08T20:05:20;4.63;;;3.08;;
55310;SDS011;41173;52.634;-8.666;2024-03-08T20:07:46;5.30;;;3.40;;
55310;SDS011;41173;52.634;-8.666;2024-03-08T20:10:17;4.18;;;3.20;;
55310;SDS011;41173;52.634;-8.666;2024-03-08T20:12:43;3.72;;;2.88;;
55310;SDS011;41173;52.634;-8.666;2024-03-08T20:15:10;4.70;;;2.67;;
55310;SDS011;41173;52.634;-8.666;2024-03-08T20:17:36;5.32;;;3.15;;
55310;SDS011;41173;52.634;-8.666;2024-03-08T20:20:03;7.93;;;3.55;;
55310;SDS011;41173;52.634;-8.666;2024-03-08T20:24:55;4.60;;;3.20;;
55310;SDS011;41173;52.634;-8.666;2024-03-08T20:27:21;4.33;;;2.83;;
55310;SDS011;41173;52.634;-8.666;2024-03-08T20:29:49;4.28;;;3.00;;
55310;SDS011;41173;52.634;-8.666;2024-03-08T20:32:15;4.60;;;2.77;;
55310;SDS011;41173;52.634;-8.666;2024-03-08T20:34:41;4.53;;;3.00;;
55310;SDS011;41173;52.634;-8.666;2024-03-08T20:37:07;4.18;;;2.65;;
55310;SDS011;41173;52.634;-8.666;2024-03-08T20:39:34;3.40;;;2.60;;
55310;SDS011;41173;52.634;-8.666;2024-03-08T20:42:00;4.32;;;2.70;;
55310;SDS011;41173;52.634;-8.666;2024-03-08T20:44:30;5.32;;;3.03;;
55310;SDS011;41173;52.634;-8.666;2024-03-08T20:49:22;3.78;;;2.70;;
55310;SDS011;41173;52.634;-8.666;2024-03-08T20:51:48;3.28;;;2.58;;
55310;SDS011;41173;52.634;-8.666;2024-03-08T20:54:14;3.83;;;2.60;;
55310;SDS011;41173;52.634;-8.666;2024-03-08T20:56:40;4.07;;;2.60;;
55310;SDS011;41173;52.634;-8.666;2024-03-08T20:59:06;4.20;;;2.83;;
55310;SDS011;41173;52.634;-8.666;2024-03-08T21:01:31;5.00;;;3.07;;
55310;SDS011;41173;52.634;-8.666;2024-03-08T21:03:57;3.73;;;2.70;;
55310;SDS011;41173;52.634;-8.666;2024-03-08T21:06:23;4.23;;;2.83;;
55310;SDS011;41173;52.634;-8.666;2024-03-08T21:08:49;3.85;;;2.72;;
55310;SDS011;41173;52.634;-8.666;2024-03-08T21:11:15;3.90;;;2.83;;
55310;SDS011;41173;52.634;-8.666;2024-03-08T21:13:41;3.95;;;2.40;;
55310;SDS011;41173;52.634;-8.666;2024-03-08T21:16:07;4.53;;;2.50;;
55310;SDS011;41173;52.634;-8.666;2024-03-08T21:18:34;3.55;;;2.40;;
55310;SDS011;41173;52.634;-8.666;2024-03-08T21:21:01;4.28;;;2.80;;
55310;SDS011;41173;52.634;-8.666;2024-03-08T21:23:27;5.53;;;2.75;;
55310;SDS011;41173;52.634;-8.666;2024-03-08T21:25:53;5.20;;;2.83;;
55310;SDS011;41173;52.634;-8.666;2024-03-08T21:28:18;3.83;;;3.07;;
55310;SDS011;41173;52.634;-8.666;2024-03-08T21:30:46;3.72;;;2.53;;
55310;SDS011;41173;52.634;-8.666;2024-03-08T21:33:12;3.77;;;2.70;;
55310;SDS011;41173;52.634;-8.666;2024-03-08T21:38:05;4.57;;;2.30;;
55310;SDS011;41173;52.634;-8.666;2024-03-08T21:40:35;3.35;;;2.38;;
55310;SDS011;41173;52.634;-8.666;2024-03-08T21:43:04;3.53;;;2.35;;
55310;SDS011;41173;52.634;-8.666;2024-03-08T21:45:30;4.00;;;2.40;;
55310;SDS011;41173;52.634;-8.666;2024-03-08T21:47:57;3.75;;;2.50;;
55310;SDS011;41173;52.634;-8.666;2024-03-08T21:50:26;3.45;;;2.20;;
55310;SDS011;41173;52.634;-8.666;2024-03-08T21:52:55;3.28;;;2.25;;
55310;SDS011;41173;52.634;-8.666;2024-03-08T21:55:22;4.43;;;2.50;;
55310;SDS011;41173;52.634;-8.666;2024-03-08T21:57:49;3.17;;;2.40;;
55310;SDS011;41173;52.634;-8.666;2024-03-08T22:00:17;3.42;;;2.40;;
55310;SDS011;41173;52.634;-8.666;2024-03-08T22:02:44;3.35;;;2.38;;
55310;SDS011;41173;52.634;-8.666;2024-03-08T22:05:14;3.78;;;2.72;;
55310;SDS011;41173;52.634;-8.666;2024-03-08T22:07:49;3.72;;;2.90;;
55310;SDS011;41173;52.634;-8.666;2024-03-08T22:10:16;3.50;;;2.30;;
55310;SDS011;41173;52.634;-8.666;2024-03-08T22:12:51;4.20;;;2.42;;
55310;SDS011;41173;52.634;-8.666;2024-03-08T22:15:18;4.13;;;2.60;;
55310;SDS011;41173;52.634;-8.666;2024-03-08T22:17:46;2.83;;;2.10;;
55310;SDS011;41173;52.634;-8.666;2024-03-08T22:20:13;2.90;;;2.25;;
55310;SDS011;41173;52.634;-8.666;2024-03-08T22:22:56;3.25;;;2.22;;
55310;SDS011;41173;52.634;-8.666;2024-03-08T22:25:22;3.88;;;2.60;;
55310;SDS011;41173;52.634;-8.666;2024-03-08T22:27:48;3.20;;;2.40;;
55310;SDS011;41173;52.634;-8.666;2024-03-08T22:30:18;4.20;;;2.33;;
55310;SDS011;41173;52.634;-8.666;2024-03-08T22:32:45;2.47;;;2.15;;
55310;SDS011;41173;52.634;-8.666;2024-03-08T22:35:11;3.90;;;2.38;;
55310;SDS011;41173;52.634;-8.666;2024-03-08T22:37:37;3.43;;;2.30;;
55310;SDS011;41173;52.634;-8.666;2024-03-08T22:42:36;5.20;;;2.25;;
55310;SDS011;41173;52.634;-8.666;2024-03-08T22:45:05;2.67;;;2.40;;
55310;SDS011;41173;52.634;-8.666;2024-03-08T22:47:32;4.07;;;2.40;;
55310;SDS011;41173;52.634;-8.666;2024-03-08T22:50:00;2.70;;;2.30;;
55310;SDS011;41173;52.634;-8.666;2024-03-08T22:52:28;3.10;;;2.15;;
55310;SDS011;41173;52.634;-8.666;2024-03-08T22:54:55;3.17;;;2.35;;
55310;SDS011;41173;52.634;-8.666;2024-03-08T22:57:20;4.90;;;2.43;;
55310;SDS011;41173;52.634;-8.666;2024-03-08T22:59:46;2.63;;;1.87;;
55310;SDS011;41173;52.634;-8.666;2024-03-08T23:02:12;3.87;;;2.20;;
55310;SDS011;41173;52.634;-8.666;2024-03-08T23:04:41;2.72;;;2.28;;
55310;SDS011;41173;52.634;-8.666;2024-03-08T23:07:07;3.42;;;1.98;;
55310;SDS011;41173;52.634;-8.666;2024-03-08T23:09:35;3.28;;;2.20;;
55310;SDS011;41173;52.634;-8.666;2024-03-08T23:12:01;2.65;;;2.20;;
55310;SDS011;41173;52.634;-8.666;2024-03-08T23:14:27;2.87;;;2.17;;
55310;SDS011;41173;52.634;-8.666;2024-03-08T23:16:53;4.20;;;2.50;;
55310;SDS011;41173;52.634;-8.666;2024-03-08T23:19:19;3.95;;;2.30;;
55310;SDS011;41173;52.634;-8.666;2024-03-08T23:21:45;3.00;;;2.22;;
55310;SDS011;41173;52.634;-8.666;2024-03-08T23:24:10;2.73;;;2.00;;
55310;SDS011;41173;52.634;-8.666;2024-03-08T23:26:36;3.10;;;2.10;;
55310;SDS011;41173;52.634;-8.666;2024-03-08T23:29:01;3.47;;;2.10;;
